Time;durP1;ratioP1;P1;durP2;ratioP2;P2;SDS_P1;SDS_P2;PMS_P1;PMS_P2;Temp;Humidity;BMP_temperature;BMP_pressure;BME280_temperature;BME280_humidity;BME280_pressure;Samples;Min_cycle;Max_cycle;Signal;HPM_P1;HPM_P2
2022/01/15 00:04:00;;;;;;;21.90;6.63;;;;;;;0.06;100.00;101676.33;3492133;82;98992;-83
2022/01/15 00:09:01;;;;;;;28.47;5.63;;;;;;;0.00;100.00;101668.52;3495202;83;98789;-84
2022/01/15 00:14:13;;;;;;;19.23;6.67;;;;;;;-0.01;100.00;101668.23;3565007;81;98620;-83
2022/01/15 00:19:13;;;;;;;23.18;5.65;;;;;;;-0.08;100.00;101671.78;3565984;81;98836;-83
2022/01/15 00:24:15;;;;;;;21.02;5.62;;;;;;;-0.13;100.00;101661.54;3571327;81;98234;-83
2022/01/15 00:29:16;;;;;;;20.30;6.67;;;;;;;-0.19;100.00;101656.67;3566436;81;99125;-83
2022/01/15 00:34:17;;;;;;;24.18;5.60;;;;;;;-0.23;100.00;101657.52;3559261;81;99007;-83
2022/01/15 00:39:18;;;;;;;23.63;5.40;;;;;;;-0.31;100.00;101651.56;3563437;81;98943;-83
2022/01/15 00:44:19;;;;;;;24.40;6.43;;;;;;;-0.32;100.00;101654.00;3570220;81;99241;-83
2022/01/15 00:49:20;;;;;;;27.40;6.37;;;;;;;-0.33;100.00;101652.12;3532743;81;99000;-83
2022/01/15 00:54:21;;;;;;;22.00;6.47;;;;;;;-0.39;100.00;101654.02;3573490;81;98970;-83
2022/01/15 00:59:22;;;;;;;19.90;5.67;;;;;;;-0.44;100.00;101644.56;3583385;81;99026;-83
2022/01/15 01:04:23;;;;;;;20.60;5.27;;;;;;;-0.45;100.00;101647.02;3555534;81;98326;-83
2022/01/15 01:09:29;;;;;;;28.43;5.27;;;;;;;-0.48;100.00;101652.98;3560370;81;98888;-83
2022/01/15 01:25:05;;;;;;;21.20;5.40;;;;;;;-0.52;100.00;101657.84;3519034;82;98914;-83
2022/01/15 01:30:21;;;;;;;22.60;5.83;;;;;;;-0.53;100.00;101647.59;3512306;82;99117;-84
2022/01/15 01:35:16;;;;;;;20.72;5.03;;;;;;;-0.55;100.00;101665.16;3520119;81;99067;-83
2022/01/15 01:40:26;;;;;;;24.43;5.47;;;;;;;-0.57;100.00;101665.95;3510127;82;99053;-84
2022/01/15 01:45:25;;;;;;;19.80;4.87;;;;;;;-0.61;100.00;101663.55;3518183;82;32282;-84
2022/01/15 01:50:29;;;;;;;18.33;4.00;;;;;;;-0.64;100.00;101670.84;3508014;82;99246;-84
2022/01/15 01:55:30;;;;;;;18.37;4.37;;;;;;;-0.66;100.00;101664.36;3529516;82;99022;-84
2022/01/15 02:00:31;;;;;;;21.97;6.57;;;;;;;-0.68;100.00;101662.48;3510831;82;98948;-84
2022/01/15 02:05:32;;;;;;;23.43;6.13;;;;;;;-0.72;100.00;101655.98;3513503;82;98979;-84
2022/01/15 02:10:34;;;;;;;20.70;5.92;;;;;;;-0.75;100.00;101648.97;3508885;82;99282;-84
2022/01/15 02:15:36;;;;;;;17.10;3.73;;;;;;;-0.76;100.00;101656.28;3515930;82;25802;-84
2022/01/15 02:23:31;;;;;;;17.77;5.00;;;;;;;-0.79;100.00;101656.81;3511902;82;98925;-84
2022/01/15 02:25:52;;;;;;;18.40;3.92;;;;;;;-0.84;100.00;101654.64;3518688;82;98845;-84
2022/01/15 02:31:00;;;;;;;17.23;4.00;;;;;;;-0.88;100.00;101650.88;3516688;82;99354;-84
2022/01/15 02:36:04;;;;;;;18.52;4.08;;;;;;;-0.92;100.00;101657.91;3514087;82;99596;-84
2022/01/15 02:41:06;;;;;;;20.35;4.35;;;;;;;-0.96;100.00;101641.96;3517217;82;99444;-83
2022/01/15 02:46:19;;;;;;;15.67;3.60;;;;;;;-1.00;100.00;101642.25;3526094;82;99116;-83
2022/01/15 02:51:31;;;;;;;23.22;4.53;;;;;;;-1.04;100.00;101643.31;3508675;82;99069;-83
2022/01/15 02:56:41;;;;;;;17.23;4.55;;;;;;;-1.06;100.00;101635.20;3533834;82;99359;-83
2022/01/15 03:01:42;;;;;;;19.65;4.25;;;;;;;-1.09;100.00;101631.71;3515235;82;99312;-83
2022/01/15 03:06:43;;;;;;;17.10;4.63;;;;;;;-1.10;100.00;101624.69;3526197;82;99366;-83
2022/01/15 03:11:44;;;;;;;19.67;4.03;;;;;;;-1.13;100.00;101631.45;3526140;81;99674;-83
2022/01/15 03:16:44;;;;;;;15.53;3.90;;;;;;;-1.13;100.00;101626.57;3557652;81;99448;-83
2022/01/15 03:21:45;;;;;;;18.20;3.92;;;;;;;-1.13;100.00;101638.73;3537113;81;98821;-83
2022/01/15 03:26:46;;;;;;;22.30;5.27;;;;;;;-1.16;100.00;101640.63;3545113;80;25879;-83
2022/01/15 03:31:47;;;;;;;17.33;4.33;;;;;;;-1.17;100.00;101644.39;3543059;81;100018;-83
2022/01/15 03:36:48;;;;;;;16.80;3.93;;;;;;;-1.17;100.00;101647.91;3545302;81;99389;-83
2022/01/15 03:41:49;;;;;;;20.17;4.80;;;;;;;-1.17;100.00;101645.21;3533202;81;99023;-83
2022/01/15 03:46:50;;;;;;;18.77;4.07;;;;;;;-1.16;100.00;101639.28;3548167;81;99017;-83
2022/01/15 03:51:50;;;;;;;20.77;4.37;;;;;;;-1.14;100.00;101643.86;3547376;82;98971;-83
2022/01/15 03:56:51;;;;;;;16.97;4.10;;;;;;;-1.15;100.00;101644.39;3563573;81;33023;-82
2022/01/15 04:01:53;;;;;;;15.70;4.07;;;;;;;-1.16;100.00;101640.08;3559839;82;99243;-82
2022/01/15 04:06:53;;;;;;;21.05;4.75;;;;;;;-1.16;100.00;101638.73;3550902;81;99024;-82
2022/01/15 04:11:54;;;;;;;21.57;4.47;;;;;;;-1.15;100.00;101649.00;3538035;81;99089;-82
2022/01/15 04:16:55;;;;;;;22.83;6.23;;;;;;;-1.17;100.00;101651.14;3568987;81;99052;-82
2022/01/15 04:21:56;;;;;;;20.10;3.90;;;;;;;-1.19;100.00;101652.79;3538103;81;98968;-82
2022/01/15 04:26:57;;;;;;;19.73;5.07;;;;;;;-1.22;100.00;101653.87;3571800;81;26012;-82
2022/01/15 04:31:58;;;;;;;23.90;4.12;;;;;;;-1.22;100.00;101661.97;3568190;81;98961;-83
2022/01/15 04:37:23;;;;;;;15.50;5.67;;;;;;;-1.25;100.00;101661.97;3574670;81;99061;-82
2022/01/15 04:42:04;;;;;;;16.57;3.95;;;;;;;-1.26;100.00;101654.13;3536217;81;99272;-83
2022/01/15 04:47:05;;;;;;;19.37;3.90;;;;;;;-1.27;100.00;101653.86;3562743;81;99334;-82
2022/01/15 04:52:06;;;;;;;22.60;3.90;;;;;;;-1.30;100.00;101651.69;3562258;80;99014;-82
2022/01/15 04:57:07;;;;;;;17.17;5.07;;;;;;;-1.32;100.00;101661.95;3571146;81;31446;-82
2022/01/15 05:02:08;;;;;;;25.17;4.97;;;;;;;-1.32;100.00;101661.40;3564045;80;98978;-82
2022/01/15 05:07:09;;;;;;;22.90;4.20;;;;;;;-1.32;100.00;101660.61;3554566;81;98863;-82
2022/01/15 05:12:22;;;;;;;20.97;4.83;;;;;;;-1.32;100.00;101664.66;3548890;80;98977;-82
2022/01/15 05:17:12;;;;;;;13.87;4.80;;;;;;;-1.36;100.00;101654.94;3512659;82;98970;-82
2022/01/15 05:22:13;;;;;;;14.10;4.12;;;;;;;-1.39;100.00;101654.11;3505261;82;98996;-82
2022/01/15 05:27:15;;;;;;;22.43;5.23;;;;;;;-1.42;100.00;101663.29;3500571;82;31997;-82
2022/01/15 05:32:18;;;;;;;16.37;4.10;;;;;;;-1.44;100.00;101662.20;3521294;82;98872;-83
2022/01/15 05:37:18;;;;;;;24.32;5.62;;;;;;;-1.46;100.00;101661.67;3509593;82;98897;-83
2022/01/15 05:42:19;;;;;;;18.40;5.97;;;;;;;-1.50;100.00;101666.50;3508883;82;99606;-82
2022/01/15 05:47:20;;;;;;;19.43;5.20;;;;;;;-1.53;100.00;101670.55;3521124;82;99162;-82
2022/01/15 05:52:21;;;;;;;21.57;5.23;;;;;;;-1.54;100.00;101678.38;3514105;82;99056;-83
2022/01/15 05:57:22;;;;;;;20.53;4.33;;;;;;;-1.54;100.00;101686.47;3520639;82;30166;-82
2022/01/15 06:02:23;;;;;;;22.43;4.97;;;;;;;-1.55;100.00;101685.38;3513067;82;98901;-82
2022/01/15 06:07:24;;;;;;;23.90;5.07;;;;;;;-1.59;100.00;101689.16;3520192;82;98909;-83
2022/01/15 06:12:30;;;;;;;17.63;4.07;;;;;;;-1.65;100.00;101686.17;3528230;81;99271;-83
2022/01/15 06:17:27;;;;;;;20.37;4.00;;;;;;;-1.67;100.00;101682.12;3561683;81;99546;-83
2022/01/15 06:22:28;;;;;;;20.40;5.67;;;;;;;-1.71;100.00;101681.05;3551399;81;99161;-83
2022/01/15 06:27:30;;;;;;;21.80;5.73;;;;;;;-1.75;100.00;101665.90;3573910;81;26838;-83
2022/01/15 06:32:36;;;;;;;20.77;5.27;;;;;;;-1.80;100.00;101668.58;3561136;81;99056;-83
2022/01/15 06:37:34;;;;;;;20.93;4.37;;;;;;;-1.84;100.00;101666.16;3577399;81;99122;-83
2022/01/15 06:42:36;;;;;;;28.67;8.30;;;;;;;-1.88;100.00;101669.11;3564921;80;99220;-83
2022/01/15 06:47:37;;;;;;;22.03;8.20;;;;;;;-1.94;100.00;101676.09;3572063;81;99238;-83
2022/01/15 06:52:39;;;;;;;31.57;12.67;;;;;;;-1.96;100.00;101676.90;3573915;81;99123;-83
2022/01/15 06:57:39;;;;;;;21.70;7.27;;;;;;;-2.00;100.00;101683.89;3582849;80;31556;-83
2022/01/15 07:02:41;;;;;;;22.47;6.83;;;;;;;-2.03;100.00;101693.32;3569725;81;99008;-84
2022/01/15 07:07:45;;;;;;;20.40;5.03;;;;;;;-2.07;100.00;101703.00;3587077;81;99034;-83
2022/01/15 07:12:44;;;;;;;22.77;4.87;;;;;;;-2.08;100.00;101708.69;3569042;80;99162;-83
2022/01/15 07:17:47;;;;;;;20.13;5.70;;;;;;;-2.11;100.00;101705.97;3586765;81;99204;-83
2022/01/15 07:22:47;;;;;;;23.70;6.10;;;;;;;-2.13;100.00;101705.41;3573080;81;99172;-84
2022/01/15 07:27:49;;;;;;;24.57;6.33;;;;;;;-2.13;100.00;101702.70;3590375;81;99182;-84
2022/01/15 07:32:50;;;;;;;25.07;6.50;;;;;;;-2.11;100.00;101712.72;3585359;81;98577;-84
2022/01/15 07:37:51;;;;;;;19.67;6.17;;;;;;;-2.10;100.00;101717.03;3588135;81;99015;-84
2022/01/15 07:42:52;;;;;;;22.73;5.25;;;;;;;-2.06;100.00;101722.18;3575974;81;99129;-84
2022/01/15 07:47:52;;;;;;;25.32;5.20;;;;;;;-2.03;100.00;101739.17;3570805;81;99174;-84
2022/01/15 07:52:56;;;;;;;30.97;7.78;;;;;;;-1.99;100.00;101749.72;3566527;81;99281;-83
2022/01/15 07:57:57;;;;;;;28.42;7.35;;;;;;;-1.94;100.00;101758.37;3570663;81;99172;-83
2022/01/15 08:02:58;;;;;;;23.37;5.73;;;;;;;-1.90;100.00;101752.20;3547759;81;99099;-82
2022/01/15 08:07:59;;;;;;;26.73;7.77;;;;;;;-1.83;100.00;101744.67;3541777;81;99179;-83
2022/01/15 08:13:01;;;;;;;33.30;10.43;;;;;;;-1.72;100.00;101747.69;3549582;81;99214;-83
2022/01/15 08:18:03;;;;;;;33.93;12.73;;;;;;;-1.59;100.00;101749.09;3578445;81;99323;-83
2022/01/15 08:23:04;;;;;;;46.10;14.63;;;;;;;-1.48;100.00;101747.50;3543957;81;99390;-83
2022/01/15 08:28:05;;;;;;;39.87;16.63;;;;;;;-1.37;100.00;101765.91;3570928;81;99772;-82
2022/01/15 08:33:06;;;;;;;40.07;15.00;;;;;;;-1.27;100.00;101764.03;3555524;81;98917;-83
2022/01/15 08:38:07;;;;;;;35.63;12.17;;;;;;;-1.15;100.00;101774.05;3565367;81;99204;-82
2022/01/15 08:43:08;;;;;;;41.80;15.57;;;;;;;-1.01;100.00;101771.64;3563892;81;99169;-83
2022/01/15 08:48:10;;;;;;;36.17;14.17;;;;;;;-0.90;100.00;101766.00;3551338;81;99250;-83
2022/01/15 08:53:11;;;;;;;39.10;13.83;;;;;;;-0.73;100.00;101771.95;3553959;81;99289;-82
2022/01/15 08:58:12;;;;;;;29.43;12.30;;;;;;;-0.57;100.00;101767.34;3547978;81;99870;-82
2022/01/15 09:03:13;;;;;;;42.10;15.40;;;;;;;-0.46;100.00;101768.44;3552188;81;98821;-82
2022/01/15 09:08:13;;;;;;;39.37;14.33;;;;;;;-0.24;100.00;101770.87;3549391;81;99155;-83
2022/01/15 09:13:14;;;;;;;33.63;13.67;;;;;;;-0.11;100.00;101774.61;3564473;81;98772;-83
2022/01/15 09:18:15;;;;;;;33.43;13.67;;;;;;;0.02;100.00;101771.89;3566278;81;99265;-83
2022/01/15 09:23:17;;;;;;;31.37;13.77;;;;;;;0.14;100.00;101781.33;3547710;81;99398;-83
2022/01/15 09:33:37;;;;;;;32.78;13.03;;;;;;;0.32;100.00;101794.80;3568520;81;31453;-82
2022/01/15 09:38:38;;;;;;;45.30;17.70;;;;;;;0.37;100.00;101794.25;3558075;81;99381;-83
2022/01/15 09:43:39;;;;;;;44.42;19.45;;;;;;;0.40;100.00;101793.67;3554135;81;98882;-82
2022/01/15 09:48:44;;;;;;;32.33;15.00;;;;;;;0.36;100.00;101796.69;3557221;80;99008;-82
2022/01/15 09:53:47;;;;;;;38.50;14.80;;;;;;;0.37;100.00;101800.19;3539451;81;98988;-82
2022/01/15 09:58:48;;;;;;;37.10;15.65;;;;;;;0.41;100.00;101789.91;3555258;81;99242;-82
2022/01/15 10:03:49;;;;;;;41.33;16.60;;;;;;;0.45;100.00;101793.66;3559223;81;99541;-82
2022/01/15 10:09:07;;;;;;;42.07;16.20;;;;;;;0.46;100.00;101790.42;3565426;80;98997;-82
2022/01/15 10:14:29;;;;;;;32.25;15.15;;;;;;;0.49;100.00;101793.91;3562226;81;98839;-82
2022/01/15 10:19:37;;;;;;;33.55;13.85;;;;;;;0.56;100.00;101791.17;3555848;81;99218;-82
2022/01/15 10:24:42;;;;;;;34.70;12.43;;;;;;;0.61;100.00;101793.07;3557553;81;99001;-83
2022/01/15 10:30:13;;;;;;;28.40;13.80;;;;;;;0.65;100.00;101794.12;3560611;81;99082;-83
2022/01/15 10:35:16;;;;;;;30.88;13.83;;;;;;;0.76;100.00;101796.52;3556625;81;99561;-84
2022/01/15 10:40:19;;;;;;;30.95;12.82;;;;;;;0.83;100.00;101798.92;3568010;80;99099;-83
2022/01/15 10:45:21;;;;;;;30.82;12.50;;;;;;;0.89;100.00;101802.66;3570660;81;29768;-84
2022/01/15 10:50:28;;;;;;;31.60;12.97;;;;;;;1.02;100.00;101789.04;3574480;81;98898;-84
2022/01/15 10:55:32;;;;;;;29.12;12.15;;;;;;;1.15;100.00;101804.70;3587573;81;98910;-84
2022/01/15 11:00:42;;;;;;;35.63;13.28;;;;;;;1.24;100.00;101804.34;3581187;81;99058;-86
2022/01/15 11:05:49;;;;;;;26.12;10.93;;;;;;;1.31;100.00;101798.88;3596992;81;99365;-85
2022/01/15 11:11:04;;;;;;;21.75;12.28;;;;;;;1.35;100.00;101790.45;3540555;81;99508;-87
2022/01/15 11:16:12;;;;;;;28.73;11.55;;;;;;;1.37;100.00;101791.53;3564715;81;99111;-86
2022/01/15 11:21:17;;;;;;;32.48;12.82;;;;;;;1.31;100.00;101785.87;3532067;81;99011;-86
2022/01/15 11:26:24;;;;;;;33.78;12.90;;;;;;;1.26;100.00;101781.28;3543369;81;99224;-85
2022/01/15 11:31:29;;;;;;;31.73;12.23;;;;;;;1.22;100.00;101775.36;3548336;81;98827;-86
2022/01/15 11:36:38;;;;;;;35.85;14.28;;;;;;;1.22;100.00;101768.58;3554264;81;99371;-86
2022/01/15 11:41:44;;;;;;;32.33;12.15;;;;;;;1.28;100.00;101757.95;3566084;81;99330;-86
2022/01/15 11:46:57;;;;;;;35.25;13.85;;;;;;;1.33;100.00;101761.45;3568352;81;99417;-87
2022/01/15 11:52:11;;;;;;;33.15;15.25;;;;;;;1.33;100.00;101761.98;3560295;81;99737;-87
2022/01/15 11:57:34;;;;;;;29.20;12.58;;;;;;;1.35;100.00;101757.08;3556114;81;29861;-86
2022/01/15 12:02:43;;;;;;;33.42;15.28;;;;;;;1.32;100.00;101743.53;3422901;84;99089;-86
2022/01/15 12:07:47;;;;;;;37.10;14.85;;;;;;;1.37;100.00;101752.20;3574333;81;98938;-86
2022/01/15 12:12:51;;;;;;;38.40;16.12;;;;;;;1.41;100.00;101756.77;3546331;81;99146;-85
2022/01/15 12:17:59;;;;;;;35.35;15.45;;;;;;;1.42;100.00;101742.09;3571365;81;99317;-86
2022/01/15 12:23:21;;;;;;;34.75;13.70;;;;;;;1.45;100.00;101738.83;3568303;81;99362;-86
2022/01/15 12:28:26;;;;;;;32.85;15.72;;;;;;;1.46;100.00;101729.59;3579069;81;99066;-86
2022/01/15 12:33:26;;;;;;;35.40;14.47;;;;;;;1.46;100.00;101728.77;3569496;81;32694;-86
2022/01/15 12:38:29;;;;;;;31.70;13.40;;;;;;;1.46;100.00;101733.66;3573810;81;100080;-86
2022/01/15 12:43:34;;;;;;;34.90;13.28;;;;;;;1.47;100.00;101723.06;3587775;81;99043;-86
2022/01/15 12:48:39;;;;;;;29.55;13.00;;;;;;;1.49;100.00;101735.00;3592502;81;99108;-89
2022/01/15 12:53:50;;;;;;;37.48;12.78;;;;;;;1.48;100.00;101738.81;3586204;81;99002;-86
2022/01/15 12:58:55;;;;;;;34.45;13.40;;;;;;;1.48;100.00;101732.03;3584528;81;99231;-86
2022/01/15 13:03:56;;;;;;;33.45;12.88;;;;;;;1.51;100.00;101728.73;3593990;80;99109;-87
2022/01/15 13:08:59;;;;;;;35.30;14.53;;;;;;;1.51;100.00;101725.48;3585377;81;98991;-86
2022/01/15 13:14:04;;;;;;;41.40;15.40;;;;;;;1.50;100.00;101735.25;3591370;81;99124;-87
2022/01/15 13:19:06;;;;;;;29.70;13.40;;;;;;;1.51;100.00;101742.30;3543534;81;99412;-86
2022/01/15 13:24:12;;;;;;;35.58;13.38;;;;;;;1.55;100.00;101744.70;3551340;81;99013;-87
2022/01/15 13:29:19;;;;;;;31.82;12.60;;;;;;;1.57;100.00;101749.29;3570470;80;99156;-85
2022/01/15 13:34:35;;;;;;;36.90;15.60;;;;;;;1.56;100.00;101753.10;3572223;80;99874;-86
2022/01/15 13:39:34;;;;;;;29.13;14.50;;;;;;;1.50;100.00;101744.75;3553792;81;98759;-85
2022/01/15 13:44:35;;;;;;;31.68;13.60;;;;;;;1.46;100.00;101759.44;3576139;81;98744;-86
2022/01/15 13:55:01;;;;;;;31.77;14.23;;;;;;;1.40;100.00;101758.39;3492425;81;99037;-86
2022/01/15 14:00:14;;;;;;;32.50;16.43;;;;;;;1.40;100.00;101758.39;3562365;81;99061;-86
2022/01/15 14:05:19;;;;;;;33.25;16.60;;;;;;;1.36;100.00;101753.27;3570739;81;98953;-86
2022/01/15 14:10:25;;;;;;;40.33;19.40;;;;;;;1.35;100.00;101758.44;3560637;81;98976;-86
2022/01/15 14:15:35;;;;;;;32.40;12.97;;;;;;;1.33;100.00;101751.14;3573461;80;25782;-88
2022/01/15 14:20:55;;;;;;;37.85;13.43;;;;;;;1.26;100.00;101742.53;3564605;81;99004;-86
2022/01/15 14:25:56;;;;;;;28.35;13.65;;;;;;;1.19;100.00;101744.19;3553405;81;98937;-86
2022/01/15 14:30:56;;;;;;;31.10;11.45;;;;;;;1.07;100.00;101734.26;3567554;81;99240;-86
2022/01/15 14:35:58;;;;;;;32.70;13.40;;;;;;;1.02;100.00;101728.87;3563605;81;99051;-85
2022/01/15 14:40:59;;;;;;;40.27;14.20;;;;;;;0.99;100.00;101740.27;3563543;81;98991;-86
2022/01/15 14:46:02;;;;;;;31.80;12.17;;;;;;;0.96;100.00;101728.64;3571072;81;98943;-85
2022/01/15 14:51:03;;;;;;;31.73;12.25;;;;;;;0.89;100.00;101740.89;3544527;81;99040;-86
2022/01/15 14:56:04;;;;;;;29.00;10.98;;;;;;;0.85;100.00;101742.53;3553621;81;98880;-86
2022/01/15 15:01:06;;;;;;;30.07;13.10;;;;;;;0.75;100.00;101742.06;3544725;80;98988;-85
2022/01/15 15:06:08;;;;;;;22.17;10.10;;;;;;;0.70;100.00;101742.61;3558272;81;98974;-85
2022/01/15 15:11:16;;;;;;;27.23;10.27;;;;;;;0.64;100.00;101745.09;3546317;81;99002;-85
2022/01/15 15:16:18;;;;;;;26.50;12.60;;;;;;;0.59;100.00;101742.41;3566982;81;98958;-85
2022/01/15 15:21:21;;;;;;;29.18;15.00;;;;;;;0.49;100.00;101747.34;3550018;81;98703;-84
2022/01/15 15:26:22;;;;;;;27.60;11.18;;;;;;;0.47;100.00;101756.83;3543078;81;99371;-86
2022/01/15 15:31:23;;;;;;;27.80;12.53;;;;;;;0.42;100.00;101745.48;3548646;81;98785;-84
2022/01/15 15:36:24;;;;;;;28.23;12.60;;;;;;;0.37;100.00;101737.38;3541781;81;99056;-84
2022/01/15 15:41:26;;;;;;;28.47;12.83;;;;;;;0.37;100.00;101736.03;3550476;82;99039;-84
2022/01/15 15:46:27;;;;;;;38.73;12.33;;;;;;;0.35;100.00;101729.27;3550376;81;98955;-84
2022/01/15 15:51:28;;;;;;;46.93;13.97;;;;;;;0.34;100.00;101733.86;3549388;81;99049;-84
2022/01/15 15:56:28;;;;;;;39.67;16.13;;;;;;;0.34;100.00;101733.07;3552037;81;98997;-84
2022/01/15 16:01:30;;;;;;;35.03;13.83;;;;;;;0.33;100.00;101733.59;3540093;81;99554;-84
2022/01/15 16:06:30;;;;;;;29.63;11.07;;;;;;;0.35;100.00;101729.27;3544217;81;99129;-84
2022/01/15 16:11:32;;;;;;;28.50;12.63;;;;;;;0.35;100.00;101738.75;3534377;81;98857;-84
2022/01/15 16:16:33;;;;;;;32.50;12.87;;;;;;;0.36;100.00;101744.42;3532399;80;99072;-84
2022/01/15 16:21:34;;;;;;;30.57;12.05;;;;;;;0.29;100.00;101735.23;3513914;82;98779;-84
2022/01/15 16:26:35;;;;;;;35.67;12.23;;;;;;;0.26;100.00;101730.39;3517860;82;98775;-84
2022/01/15 16:31:36;;;;;;;44.50;16.03;;;;;;;0.24;100.00;101731.75;3521921;81;98785;-84
2022/01/15 16:36:37;;;;;;;30.60;12.67;;;;;;;0.23;100.00;101726.08;3511815;82;99033;-84
2022/01/15 16:41:38;;;;;;;37.95;14.73;;;;;;;0.24;100.00;101727.69;3523895;82;98944;-84
2022/01/15 16:46:39;;;;;;;37.25;13.58;;;;;;;0.27;100.00;101728.47;3507795;82;98953;-84
2022/01/15 16:51:40;;;;;;;35.93;13.90;;;;;;;0.28;100.00;101733.62;3524560;82;98522;-84
2022/01/15 16:56:41;;;;;;;34.63;13.63;;;;;;;0.25;100.00;101726.06;3516386;82;98840;-84
2022/01/15 17:01:41;;;;;;;30.37;11.73;;;;;;;0.22;100.00;101726.61;3521400;81;98936;-85
2022/01/15 17:06:42;;;;;;;33.80;12.97;;;;;;;0.18;100.00;101717.97;3498244;82;99044;-84
2022/01/15 17:11:43;;;;;;;27.13;10.73;;;;;;;0.13;100.00;101716.64;3511374;81;98939;-84
2022/01/15 17:16:46;;;;;;;26.73;12.30;;;;;;;0.08;100.00;101716.13;3538772;81;99011;-84
2022/01/15 17:21:47;;;;;;;29.53;13.17;;;;;;;0.01;100.00;101686.38;3581900;81;99023;-84
2022/01/15 17:26:47;;;;;;;36.87;12.60;;;;;;;0.05;100.00;101685.53;3597320;80;32230;-83
2022/01/15 17:31:48;;;;;;;36.33;14.20;;;;;;;0.08;100.00;101680.11;3581302;81;100325;-83
2022/01/15 17:36:49;;;;;;;47.30;20.43;;;;;;;0.06;100.00;101699.89;3577966;81;99275;-83
2022/01/15 17:41:50;;;;;;;36.15;19.85;;;;;;;0.09;100.00;101695.26;3582630;81;99004;-83
2022/01/15 17:46:52;;;;;;;37.87;16.13;;;;;;;0.15;100.00;101692.80;3581659;81;99252;-84
2022/01/15 17:51:52;;;;;;;36.23;15.43;;;;;;;0.18;100.00;101684.14;3577054;81;99481;-84
2022/01/15 17:56:53;;;;;;;31.00;12.73;;;;;;;0.20;100.00;101691.42;3587435;81;25955;-83
2022/01/15 18:01:54;;;;;;;33.77;12.97;;;;;;;0.21;100.00;101696.56;3558428;81;99265;-83
2022/01/15 18:06:55;;;;;;;33.93;13.33;;;;;;;0.18;100.00;101684.92;3590864;81;99363;-83
2022/01/15 18:11:56;;;;;;;33.73;13.27;;;;;;;0.19;100.00;101678.98;3573520;81;99303;-83
2022/01/15 18:16:58;;;;;;;32.83;11.83;;;;;;;0.17;100.00;101691.44;3585466;80;99847;-83
2022/01/15 18:21:59;;;;;;;37.43;15.10;;;;;;;0.13;100.00;101686.30;3545141;81;99290;-83
2022/01/15 18:27:00;;;;;;;32.37;12.90;;;;;;;0.11;100.00;101679.57;3560050;81;25877;-83
2022/01/15 18:32:02;;;;;;;33.57;13.73;;;;;;;0.13;100.00;101680.89;3560457;81;98947;-83
2022/01/15 18:37:03;;;;;;;30.93;13.77;;;;;;;0.14;100.00;101681.17;3541199;81;98899;-83
2022/01/15 18:42:05;;;;;;;34.17;14.03;;;;;;;0.12;100.00;101685.25;3573574;81;99495;-83
2022/01/15 18:47:07;;;;;;;39.85;15.43;;;;;;;0.09;100.00;101693.38;3563689;81;98959;-83
2022/01/15 18:52:09;;;;;;;34.00;14.57;;;;;;;0.06;100.00;101695.83;3555761;81;99092;-83
2022/01/15 18:57:10;;;;;;;40.83;15.08;;;;;;;0.06;100.00;101693.12;3567808;81;30468;-83
2022/01/15 19:02:11;;;;;;;33.97;15.70;;;;;;;0.09;100.00;101697.97;3548245;81;98933;-83
2022/01/15 19:07:12;;;;;;;35.83;13.67;;;;;;;0.05;100.00;101720.72;3548661;81;98874;-83
2022/01/15 19:12:13;;;;;;;29.47;12.57;;;;;;;0.00;100.00;101776.77;3561047;81;98927;-83
2022/01/15 19:17:14;;;;;;;36.17;14.57;;;;;;;-0.01;100.00;101692.59;3565886;81;98953;-83
2022/01/15 19:22:15;;;;;;;41.10;14.60;;;;;;;0.00;100.00;101640.90;3552072;81;99246;-83
2022/01/15 19:27:16;;;;;;;29.90;12.47;;;;;;;0.02;100.00;101663.63;3571771;81;25936;-83
2022/01/15 19:32:17;;;;;;;30.57;12.00;;;;;;;-0.02;100.00;101666.62;3557462;81;99152;-83
2022/01/15 19:37:18;;;;;;;28.87;11.63;;;;;;;-0.08;100.00;101698.84;3579823;81;99407;-83
2022/01/15 19:42:19;;;;;;;32.63;13.13;;;;;;;-0.10;100.00;101612.53;3557900;80;99223;-82
2022/01/15 19:47:23;;;;;;;29.03;12.27;;;;;;;-0.10;100.00;101578.70;3563521;81;99187;-83
2022/01/15 19:52:23;;;;;;;40.23;15.47;;;;;;;-0.15;100.00;101577.94;3548182;81;99214;-82
2022/01/15 19:57:24;;;;;;;34.90;12.57;;;;;;;-0.17;100.00;101637.47;3578377;81;33027;-82
2022/01/15 20:02:26;;;;;;;32.70;13.53;;;;;;;-0.18;100.00;101666.41;3562614;81;99151;-82
2022/01/15 20:07:26;;;;;;;49.87;17.60;;;;;;;-0.17;100.00;101669.38;3582034;80;98285;-82
2022/01/15 20:12:28;;;;;;;24.10;10.63;;;;;;;-0.13;100.00;101652.07;3595614;81;99186;-82
2022/01/15 20:17:29;;;;;;;24.63;9.47;;;;;;;-0.13;100.00;101631.22;3570756;81;99242;-82
2022/01/15 20:22:30;;;;;;;22.33;9.17;;;;;;;-0.16;100.00;101640.69;3571863;81;99447;-82
2022/01/15 20:27:30;;;;;;;20.30;8.47;;;;;;;-0.18;100.00;101621.77;3578672;81;31647;-82
2022/01/15 20:32:31;;;;;;;25.67;8.43;;;;;;;-0.17;100.00;101624.73;3580823;80;99246;-81
2022/01/15 20:37:32;;;;;;;25.73;9.20;;;;;;;-0.15;100.00;101607.14;3580397;81;98918;-81
2022/01/15 20:42:35;;;;;;;17.97;8.20;;;;;;;-0.13;100.00;101630.42;3577963;81;99133;-81
2022/01/15 20:47:40;;;;;;;23.80;9.30;;;;;;;-0.11;100.00;101594.68;3575108;81;98995;-82
2022/01/15 20:52:41;;;;;;;26.10;9.38;;;;;;;-0.06;100.00;101593.30;3579565;80;99051;-82
2022/01/15 20:57:44;;;;;;;27.93;8.70;;;;;;;-0.01;100.00;101617.64;3569403;81;31531;-82
2022/01/15 21:02:46;;;;;;;26.50;9.75;;;;;;;0.00;100.00;101630.64;3575332;81;99025;-82
2022/01/15 21:07:47;;;;;;;27.85;9.95;;;;;;;0.04;100.00;101632.50;3578140;81;98702;-82
2022/01/15 21:12:48;;;;;;;32.13;11.60;;;;;;;0.04;100.00;101633.85;3568983;81;98744;-81
2022/01/15 21:17:52;;;;;;;28.37;10.40;;;;;;;0.07;100.00;101622.45;3557770;81;98973;-82
2022/01/15 21:22:54;;;;;;;33.45;13.38;;;;;;;0.08;100.00;101617.33;3561229;81;98949;-81
2022/01/15 21:27:58;;;;;;;28.65;10.68;;;;;;;0.08;100.00;101613.27;3573583;81;99049;-81
2022/01/15 21:33:04;;;;;;;37.42;12.78;;;;;;;0.08;100.00;101620.03;3560905;81;98928;-81
2022/01/15 21:38:05;;;;;;;46.40;15.40;;;;;;;0.10;100.00;101611.61;3563416;80;98840;-81
2022/01/15 21:43:06;;;;;;;33.23;13.07;;;;;;;0.09;100.00;101593.23;3555478;81;98949;-81
2022/01/15 21:48:07;;;;;;;31.97;10.17;;;;;;;0.11;100.00;101578.08;3563278;81;98963;-82
2022/01/15 21:53:08;;;;;;;30.57;13.03;;;;;;;0.10;100.00;101588.61;3561904;81;99019;-82
2022/01/15 21:58:10;;;;;;;37.00;12.80;;;;;;;0.12;100.00;101598.07;3559000;81;98987;-81
2022/01/15 22:03:10;;;;;;;42.43;15.80;;;;;;;0.10;100.00;101586.73;3557425;81;98706;-81
2022/01/15 22:08:11;;;;;;;30.40;11.67;;;;;;;0.11;100.00;101574.80;3542129;81;98859;-81
2022/01/15 22:13:13;;;;;;;67.23;26.03;;;;;;;0.12;100.00;101567.50;3547696;80;99473;-81
2022/01/15 22:18:14;;;;;;;48.87;16.43;;;;;;;0.14;100.00;101572.91;3560644;81;99575;-82
2022/01/15 22:23:15;;;;;;;47.77;17.20;;;;;;;0.11;100.00;101585.63;3537973;81;99012;-81
2022/01/15 22:28:16;;;;;;;47.17;13.98;;;;;;;0.10;100.00;101573.19;3549552;81;99595;-82
2022/01/15 22:33:17;;;;;;;49.87;18.40;;;;;;;0.10;100.00;101565.61;3570988;81;31677;-82
2022/01/15 22:38:18;;;;;;;42.80;16.93;;;;;;;0.15;100.00;101568.28;3544723;81;98815;-81
2022/01/15 22:43:19;;;;;;;42.87;16.10;;;;;;;0.18;100.00;101565.81;3560812;80;98946;-82
2022/01/15 22:48:21;;;;;;;47.27;18.30;;;;;;;0.18;100.00;101567.17;3592514;81;99113;-84
2022/01/15 22:53:24;;;;;;;44.00;16.60;;;;;;;0.23;100.00;101563.08;3591462;81;99156;-83
2022/01/15 22:58:25;;;;;;;44.03;16.60;;;;;;;0.23;100.00;101563.08;3585799;81;99230;-83
2022/01/15 23:03:28;;;;;;;84.13;26.37;;;;;;;0.26;100.00;101562.53;3594095;80;32268;-83
2022/01/15 23:08:29;;;;;;;70.50;25.40;;;;;;;0.28;100.00;101563.61;3588483;81;99035;-83
2022/01/15 23:13:43;;;;;;;36.77;15.30;;;;;;;0.31;100.00;101563.03;3591296;80;98824;-83
2022/01/15 23:18:38;;;;;;;45.10;17.37;;;;;;;0.29;100.00;101567.37;3595391;81;99488;-83